createdAt,value
2022-10-31T00:00:47.499Z,101227.97
2022-10-31T00:03:14.004Z,101226.72
2022-10-31T00:05:46.026Z,101228.56
2022-10-31T00:08:12.425Z,101228.06
2022-10-31T00:10:40.914Z,101235.38
2022-10-31T00:13:08.140Z,101228.75
2022-10-31T00:15:35.903Z,101235.06
2022-10-31T00:18:03.057Z,101235.06
2022-10-31T00:20:30.051Z,101229.53
2022-10-31T00:23:00.615Z,101231.38
2022-10-31T00:25:28.219Z,101240.78
2022-10-31T00:27:54.648Z,101236.28
2022-10-31T00:30:21.258Z,101241.94
2022-10-31T00:32:47.689Z,101233.53
2022-10-31T00:35:14.080Z,101247.84
2022-10-31T00:37:40.474Z,101251.72
2022-10-31T00:40:07.591Z,101253.91
2022-10-31T00:42:34.012Z,101251.72
2022-10-31T00:45:00.414Z,101257.41
2022-10-31T00:47:26.863Z,101258.06
2022-10-31T00:49:53.267Z,101265.06
2022-10-31T00:52:19.741Z,101265.75
2022-10-31T00:54:46.140Z,101273.47
2022-10-31T00:57:12.562Z,101259.63
2022-10-31T00:59:38.990Z,101260.22
2022-10-31T01:02:05.523Z,101264.03
2022-10-31T01:04:32.016Z,101267.88
2022-10-31T01:06:58.440Z,101270.66
2022-10-31T01:09:24.920Z,101270.03
2022-10-31T01:11:51.354Z,101274.09
2022-10-31T01:14:17.796Z,101276.41
2022-10-31T01:16:44.231Z,101271.72
2022-10-31T01:19:10.607Z,101270.72
2022-10-31T01:21:37.093Z,101271.72
2022-10-31T01:24:03.735Z,101270.34
2022-10-31T01:26:32.426Z,101264.13
2022-10-31T01:29:01.674Z,101277.97
2022-10-31T01:31:31.528Z,101275.47
2022-10-31T01:33:58.644Z,101278.38
2022-10-31T01:36:29.741Z,101275.81
2022-10-31T01:39:02.199Z,101279.22
2022-10-31T01:41:31.436Z,101272.28
2022-10-31T01:44:00.611Z,101274.31
2022-10-31T01:46:34.543Z,101276.06
2022-10-31T01:49:18.209Z,101271.22
2022-10-31T01:51:54.402Z,101277.53
2022-10-31T01:54:23.892Z,101285.28
2022-10-31T01:56:55.079Z,101281.41
2022-10-31T01:59:23.009Z,101282.25
2022-10-31T02:01:51.555Z,101281.31
2022-10-31T02:04:19.795Z,101289.25
2022-10-31T02:10:35.622Z,101280.78
2022-10-31T02:13:05.247Z,101276.41
2022-10-31T02:15:33.643Z,101287.16
2022-10-31T02:18:00.622Z,101284.53
2022-10-31T02:20:34.578Z,101287.09
2022-10-31T02:23:26.066Z,101287.41
2022-10-31T02:26:04.496Z,101287.72
2022-10-31T02:28:58.780Z,101281.03
2022-10-31T02:31:43.524Z,101280.34
2022-10-31T02:34:20.293Z,101281.31
2022-10-31T02:37:00.377Z,101280.34
2022-10-31T02:39:36.073Z,101287.75
2022-10-31T02:42:14.244Z,101288.75
2022-10-31T02:44:52.736Z,101296.09
2022-10-31T02:47:25.284Z,101298.97
2022-10-31T02:49:51.648Z,101299.09
2022-10-31T02:52:27.663Z,101305.66
2022-10-31T02:54:54.409Z,101300.28
2022-10-31T02:57:26.461Z,101304.78
2022-10-31T03:00:02.313Z,101303.25
2022-10-31T03:02:47.436Z,101317.53
2022-10-31T03:05:48.021Z,101314.44
2022-10-31T03:08:14.424Z,101315.84
2022-10-31T03:10:57.910Z,101309.59
2022-10-31T03:13:56.569Z,101311.44
2022-10-31T03:16:33.762Z,101319.25
2022-10-31T03:19:12.235Z,101319.44
2022-10-31T03:21:44.947Z,101316.75
2022-10-31T03:24:13.730Z,101323.25
2022-10-31T03:26:45.713Z,101321.56
2022-10-31T03:29:16.335Z,101328.50
2022-10-31T03:32:41.382Z,101338.44
2022-10-31T03:35:10.412Z,101337.16
2022-10-31T03:37:38.664Z,101338.81
2022-10-31T03:40:08.909Z,101341.22
2022-10-31T03:42:42.405Z,101349.56
2022-10-31T03:45:09.099Z,101343.34
2022-10-31T03:47:38.621Z,101349.03
2022-10-31T03:50:08.429Z,101353.31
2022-10-31T03:52:42.445Z,101343.28
2022-10-31T03:55:17.492Z,101354.69
2022-10-31T03:58:03.660Z,101347.47
2022-10-31T04:00:32.849Z,101350.31
2022-10-31T04:03:08.440Z,101349.19
2022-10-31T04:05:37.070Z,101357.28
2022-10-31T04:08:10.005Z,101355.28
2022-10-31T04:10:39.741Z,101354.44
2022-10-31T04:13:15.095Z,101357.00
2022-10-31T04:15:44.409Z,101355.28
2022-10-31T04:18:11.033Z,101355.72
2022-10-31T04:20:40.315Z,101366.34
2022-10-31T04:23:20.357Z,101355.19
2022-10-31T04:25:46.843Z,101355.91
2022-10-31T04:28:13.338Z,101358.72
2022-10-31T04:30:39.981Z,101361.28
2022-10-31T04:33:06.540Z,101369.16
2022-10-31T04:35:33.018Z,101370.28
2022-10-31T04:37:59.479Z,101370.28
2022-10-31T04:40:25.938Z,101361.84
2022-10-31T04:42:52.379Z,101368.06
2022-10-31T04:45:21.211Z,101376.66
2022-10-31T04:47:48.089Z,101380.78
2022-10-31T04:50:14.918Z,101372.31
2022-10-31T04:52:43.507Z,101373.03
2022-10-31T04:55:10.709Z,101365.84
2022-10-31T04:57:44.625Z,101371.50
2022-10-31T05:00:13.690Z,101370.19
2022-10-31T05:02:51.488Z,101370.19
2022-10-31T05:05:19.493Z,101373.88
2022-10-31T05:07:47.540Z,101384.06
2022-10-31T05:10:19.875Z,101379.38
2022-10-31T05:12:48.854Z,101376.16
2022-10-31T05:15:15.683Z,101378.53
2022-10-31T05:17:42.268Z,101375.31
2022-10-31T05:20:09.199Z,101378.00
2022-10-31T05:22:35.620Z,101386.50
2022-10-31T05:25:02.016Z,101383.81
2022-10-31T05:27:28.465Z,101380.13
2022-10-31T05:29:54.923Z,101391.03
2022-10-31T05:32:21.324Z,101386.22
2022-10-31T05:34:47.721Z,101386.50
2022-10-31T05:37:14.132Z,101389.75
2022-10-31T05:39:40.560Z,101389.38
2022-10-31T05:42:07.085Z,101391.34
2022-10-31T05:44:33.600Z,101392.03
2022-10-31T05:46:59.986Z,101395.03
2022-10-31T05:49:26.417Z,101393.72
2022-10-31T05:51:52.852Z,101406.16
2022-10-31T05:54:19.271Z,101397.09
2022-10-31T05:56:45.770Z,101403.19
2022-10-31T05:59:12.232Z,101393.84
2022-10-31T06:01:38.817Z,101407.00
2022-10-31T06:04:05.476Z,101405.03
2022-10-31T06:06:31.857Z,101406.44
2022-10-31T06:08:58.257Z,101409.66
2022-10-31T06:11:24.793Z,101412.53
2022-10-31T06:13:51.285Z,101412.53
2022-10-31T06:16:17.658Z,101411.22
2022-10-31T06:18:44.120Z,101408.28
2022-10-31T06:21:12.493Z,101410.22
2022-10-31T06:23:41.342Z,101407.00
2022-10-31T06:26:07.823Z,101407.25
2022-10-31T06:28:34.243Z,101411.63
2022-10-31T06:31:00.710Z,101414.19
2022-10-31T06:33:27.263Z,101418.44
2022-10-31T06:35:53.677Z,101429.72
2022-10-31T06:38:20.071Z,101433.53
2022-10-31T06:40:46.512Z,101431.50
2022-10-31T06:43:13.017Z,101438.44
2022-10-31T06:45:39.545Z,101436.75
2022-10-31T06:48:22.238Z,101434.44
2022-10-31T06:50:48.833Z,101436.28
2022-10-31T06:53:15.616Z,101429.78
2022-10-31T06:55:42.996Z,101446.00
2022-10-31T06:58:11.348Z,101455.06
2022-10-31T07:00:38.248Z,101450.50
2022-10-31T07:03:07.054Z,101455.31
2022-10-31T07:05:33.860Z,101463.16
2022-10-31T07:08:02.795Z,101461.41
2022-10-31T07:10:34.396Z,101457.13
2022-10-31T07:13:07.351Z,101460.22
2022-10-31T07:15:36.541Z,101459.63
2022-10-31T07:18:04.904Z,101459.41
2022-10-31T07:20:32.263Z,101465.16
2022-10-31T07:22:59.444Z,101472.72
2022-10-31T07:25:26.017Z,101467.81
2022-10-31T07:27:52.580Z,101468.56
2022-10-31T07:30:19.786Z,101469.09
2022-10-31T07:32:50.814Z,101466.78
2022-10-31T07:35:20.079Z,101469.25
2022-10-31T07:37:46.638Z,101475.88
2022-10-31T07:40:13.489Z,101474.28
2022-10-31T07:42:44.564Z,101473.88
2022-10-31T07:45:13.317Z,101478.31
2022-10-31T07:47:47.135Z,101477.34
2022-10-31T07:50:23.108Z,101484.00
2022-10-31T07:52:58.530Z,101486.13
2022-10-31T07:55:24.956Z,101491.28
2022-10-31T07:58:05.598Z,101490.63
2022-10-31T08:00:34.192Z,101487.94
2022-10-31T08:03:06.388Z,101498.19
2022-10-31T08:05:33.555Z,101496.25
2022-10-31T08:08:00.896Z,101490.50
2022-10-31T08:10:28.460Z,101493.53
2022-10-31T08:13:14.483Z,101498.84
2022-10-31T08:15:42.694Z,101499.78
2022-10-31T08:18:15.975Z,101502.06
2022-10-31T08:20:43.578Z,101506.84
2022-10-31T08:23:11.735Z,101508.19
2022-10-31T08:25:39.307Z,101511.88
2022-10-31T08:28:07.503Z,101509.16
2022-10-31T08:30:35.905Z,101498.22
2022-10-31T08:33:14.130Z,101513.13
2022-10-31T08:35:41.079Z,101512.41
2022-10-31T08:38:09.380Z,101500.22
2022-10-31T08:40:36.634Z,101508.63
2022-10-31T08:43:06.051Z,101498.81
2022-10-31T08:45:34.330Z,101494.72
2022-10-31T08:48:02.745Z,101495.91
2022-10-31T08:50:31.086Z,101500.19
2022-10-31T08:53:05.928Z,101500.84
2022-10-31T08:55:35.311Z,101501.13
2022-10-31T08:58:03.338Z,101503.22
2022-10-31T09:00:30.140Z,101511.84
2022-10-31T09:03:02.482Z,101511.53
2022-10-31T09:05:29.170Z,101513.09
2022-10-31T09:08:00.504Z,101518.00
2022-10-31T09:10:28.149Z,101519.84
2022-10-31T09:13:16.505Z,101526.44
2022-10-31T09:15:44.928Z,101519.69
2022-10-31T09:18:12.515Z,101519.34
2022-10-31T09:20:40.414Z,101518.13
2022-10-31T09:23:12.270Z,101525.25
2022-10-31T09:25:39.425Z,101519.81
2022-10-31T09:28:07.882Z,101522.38
2022-10-31T09:30:36.171Z,101520.84
2022-10-31T09:33:05.450Z,101524.03
2022-10-31T09:35:32.455Z,101525.28
2022-10-31T09:38:01.115Z,101530.88
2022-10-31T09:40:49.859Z,101537.38
2022-10-31T09:43:23.074Z,101535.03
2022-10-31T09:46:02.952Z,101533.47
2022-10-31T09:48:48.204Z,101542.78
2022-10-31T09:51:23.371Z,101543.63
2022-10-31T09:53:56.457Z,101540.41
2022-10-31T09:56:24.503Z,101539.41
2022-10-31T09:59:01.475Z,101540.94
2022-10-31T10:01:46.025Z,101540.72
2022-10-31T10:04:47.770Z,101539.56
2022-10-31T10:07:46.546Z,101534.06
2022-10-31T10:10:23.269Z,101527.94
2022-10-31T10:13:08.095Z,101528.41
2022-10-31T10:16:24.296Z,101525.28
2022-10-31T10:19:09.010Z,101530.19
2022-10-31T10:22:05.413Z,101527.56
2022-10-31T10:24:46.752Z,101518.69
2022-10-31T10:27:34.949Z,101512.41
2022-10-31T10:30:16.646Z,101514.16
2022-10-31T10:32:50.872Z,101519.47
2022-10-31T10:35:22.952Z,101504.69
2022-10-31T10:37:53.945Z,101511.09
2022-10-31T10:40:29.221Z,101503.38
2022-10-31T10:43:21.996Z,101501.19
2022-10-31T10:46:19.059Z,101502.16
2022-10-31T10:48:53.759Z,101499.47
2022-10-31T10:51:54.670Z,101504.72
2022-10-31T10:54:47.822Z,101508.91
2022-10-31T10:57:32.457Z,101514.00
2022-10-31T11:00:02.443Z,101501.28
2022-10-31T11:02:33.519Z,101497.19
2022-10-31T11:05:02.549Z,101499.16
2022-10-31T11:07:39.810Z,101499.38
2022-10-31T11:10:14.154Z,101502.78
2022-10-31T11:12:41.373Z,101498.63
2022-10-31T11:15:23.986Z,101498.41
2022-10-31T11:17:53.677Z,101489.41
2022-10-31T11:20:20.123Z,101487.94
2022-10-31T11:22:48.769Z,101489.78
2022-10-31T11:25:22.426Z,101482.00
2022-10-31T11:28:19.697Z,101493.03
2022-10-31T11:30:53.421Z,101486.34
2022-10-31T11:33:27.408Z,101481.19
2022-10-31T11:35:57.950Z,101484.25
2022-10-31T11:38:32.837Z,101480.63
2022-10-31T11:41:14.525Z,101483.00
2022-10-31T11:43:50.553Z,101466.06
2022-10-31T11:46:22.443Z,101473.56
2022-10-31T11:48:51.643Z,101481.44
2022-10-31T11:51:33.798Z,101480.91
2022-10-31T11:54:03.538Z,101472.69
2022-10-31T11:56:43.224Z,101472.88
2022-10-31T11:59:28.100Z,101464.41
2022-10-31T12:01:56.608Z,101472.69
2022-10-31T12:05:09.537Z,101464.75
2022-10-31T12:07:36.194Z,101458.66
2022-10-31T12:10:05.919Z,101462.63
2022-10-31T12:12:35.454Z,101456.88
2022-10-31T12:15:04.988Z,101454.91
2022-10-31T12:18:09.575Z,101458.50
2022-10-31T12:20:57.767Z,101452.38
2022-10-31T12:23:41.516Z,101455.13
2022-10-31T12:26:48.475Z,101449.38
2022-10-31T12:29:26.394Z,101441.84
2022-10-31T12:32:17.770Z,101441.00
2022-10-31T12:35:17.938Z,101442.59
2022-10-31T12:38:09.310Z,101441.50
2022-10-31T12:40:35.781Z,101439.31
2022-10-31T12:43:02.670Z,101435.22
2022-10-31T12:45:45.999Z,101434.81
2022-10-31T12:48:18.112Z,101432.16
2022-10-31T12:51:07.345Z,101427.69
2022-10-31T12:53:42.836Z,101425.59
2022-10-31T12:56:20.250Z,101427.84
2022-10-31T12:58:54.836Z,101429.84
2022-10-31T13:01:30.378Z,101429.00
2022-10-31T13:04:04.283Z,101423.69
2022-10-31T13:06:45.000Z,101427.59
2022-10-31T13:09:18.145Z,101413.59
2022-10-31T13:11:59.361Z,101412.91
2022-10-31T13:14:36.562Z,101417.78
2022-10-31T13:17:04.955Z,101417.72
2022-10-31T13:19:34.327Z,101408.84
2022-10-31T13:22:23.814Z,101423.59
2022-10-31T13:25:18.164Z,101408.50
2022-10-31T13:27:59.646Z,101409.03
2022-10-31T13:30:30.461Z,101412.94
2022-10-31T13:33:06.163Z,101406.25
2022-10-31T13:35:38.970Z,101410.00
2022-10-31T13:38:05.324Z,101407.28
2022-10-31T13:40:40.773Z,101402.81
2022-10-31T13:43:30.873Z,101409.47
2022-10-31T13:45:57.428Z,101405.56
2022-10-31T13:48:26.527Z,101400.78
2022-10-31T13:51:02.973Z,101403.44
2022-10-31T13:53:52.363Z,101396.81
2022-10-31T13:56:23.324Z,101396.81
2022-10-31T13:58:58.869Z,101402.97
2022-10-31T14:01:25.820Z,101399.94
2022-10-31T14:04:12.469Z,101385.25
2022-10-31T14:07:09.216Z,101388.16
2022-10-31T14:10:04.619Z,101388.34
2022-10-31T14:12:38.614Z,101381.59
2022-10-31T14:15:21.523Z,101382.53
2022-10-31T14:17:50.568Z,101383.19
2022-10-31T14:20:16.949Z,101380.22
2022-10-31T14:22:44.792Z,101388.03
2022-10-31T14:25:37.786Z,101384.88
2022-10-31T14:28:21.396Z,101381.50
2022-10-31T14:30:55.947Z,101389.06
2022-10-31T14:33:25.094Z,101381.19
2022-10-31T14:36:02.472Z,101379.50
2022-10-31T14:38:37.252Z,101380.59
2022-10-31T14:41:54.118Z,101379.97
2022-10-31T14:45:01.157Z,101367.00
2022-10-31T14:47:48.390Z,101372.22
2022-10-31T14:50:26.737Z,101373.47
2022-10-31T14:52:57.339Z,101366.03
2022-10-31T14:55:25.628Z,101374.22
2022-10-31T14:57:58.496Z,101374.09
2022-10-31T15:00:28.517Z,101383.88
2022-10-31T15:03:05.229Z,101368.34
2022-10-31T15:05:33.801Z,101370.44
2022-10-31T15:08:00.339Z,101365.03
2022-10-31T15:10:38.013Z,101362.00
2022-10-31T15:13:30.759Z,101369.22
2022-10-31T15:15:57.316Z,101361.75
2022-10-31T15:18:28.847Z,101366.25
2022-10-31T15:20:57.422Z,101360.50
2022-10-31T15:23:29.999Z,101364.72
2022-10-31T15:26:05.848Z,101360.97
2022-10-31T15:28:33.017Z,101357.19
2022-10-31T15:31:01.791Z,101357.25
2022-10-31T15:33:37.520Z,101353.53
2022-10-31T15:36:05.688Z,101351.19
2022-10-31T15:38:32.704Z,101350.69
2022-10-31T15:41:20.977Z,101344.78
2022-10-31T15:43:48.834Z,101355.25
2022-10-31T15:46:15.518Z,101350.53
2022-10-31T15:48:46.700Z,101348.50
2022-10-31T15:51:13.661Z,101356.09
2022-10-31T15:53:49.316Z,101351.72
2022-10-31T15:56:32.950Z,101349.53
2022-10-31T15:59:01.165Z,101356.78
2022-10-31T16:01:33.430Z,101362.53
2022-10-31T16:04:04.270Z,101361.03
2022-10-31T16:06:32.645Z,101360.16
2022-10-31T16:08:59.217Z,101357.63
2022-10-31T16:11:38.946Z,101355.78
2022-10-31T16:14:23.243Z,101354.47
2022-10-31T16:16:58.620Z,101358.66
2022-10-31T16:19:37.322Z,101358.69
2022-10-31T16:22:07.900Z,101360.34
2022-10-31T16:24:38.807Z,101351.91
2022-10-31T16:27:16.299Z,101358.31
2022-10-31T16:29:47.710Z,101355.47
2022-10-31T16:32:27.358Z,101357.28
2022-10-31T16:35:08.721Z,101355.44
2022-10-31T16:37:37.936Z,101356.28
2022-10-31T16:40:05.020Z,101354.94
2022-10-31T16:42:31.519Z,101349.03
2022-10-31T16:44:58.116Z,101352.72
2022-10-31T16:47:27.569Z,101342.78
2022-10-31T16:49:55.285Z,101347.66
2022-10-31T16:52:21.881Z,101349.63
2022-10-31T16:54:48.481Z,101347.25
2022-10-31T16:57:19.263Z,101347.75
2022-10-31T16:59:49.267Z,101349.16
2022-10-31T17:02:17.536Z,101345.94
2022-10-31T17:04:44.436Z,101344.56
2022-10-31T17:07:10.869Z,101342.72
2022-10-31T17:09:37.335Z,101344.91
2022-10-31T17:12:06.366Z,101338.00
2022-10-31T17:14:34.649Z,101339.97
2022-10-31T17:17:01.071Z,101344.34
2022-10-31T17:19:27.475Z,101339.28
2022-10-31T17:21:54.098Z,101340.31
2022-10-31T17:24:20.718Z,101335.56
2022-10-31T17:26:47.233Z,101330.03
2022-10-31T17:29:13.889Z,101338.25
2022-10-31T17:31:40.385Z,101342.59
2022-10-31T17:34:08.769Z,101335.16
2022-10-31T17:36:36.043Z,101326.38
2022-10-31T17:39:05.361Z,101328.03
2022-10-31T17:41:31.924Z,101330.09
2022-10-31T17:43:59.338Z,101326.03
2022-10-31T17:46:26.545Z,101320.84
2022-10-31T17:48:52.981Z,101329.25
2022-10-31T17:51:19.543Z,101330.59
2022-10-31T17:53:46.056Z,101312.44
2022-10-31T17:56:13.080Z,101322.41
2022-10-31T17:58:39.501Z,101319.72
2022-10-31T18:01:11.809Z,101320.53
2022-10-31T18:03:39.095Z,101321.03
2022-10-31T18:06:06.219Z,101315.97
2022-10-31T18:08:35.191Z,101323.94
2022-10-31T18:11:09.093Z,101315.16
2022-10-31T18:13:36.666Z,101315.34
2022-10-31T18:16:10.701Z,101311.63
2022-10-31T18:18:37.118Z,101312.25
2022-10-31T18:21:04.047Z,101311.94
2022-10-31T18:23:30.549Z,101311.75
2022-10-31T18:25:57.159Z,101311.59
2022-10-31T18:28:23.576Z,101315.59
2022-10-31T18:30:50.024Z,101314.56
2022-10-31T18:33:16.816Z,101307.16
2022-10-31T18:35:43.194Z,101303.97
2022-10-31T18:38:10.128Z,101300.56
2022-10-31T18:40:36.844Z,101301.41
2022-10-31T18:43:03.923Z,101294.16
2022-10-31T18:45:45.413Z,101289.94
2022-10-31T18:48:14.381Z,101290.09
2022-10-31T18:50:40.918Z,101290.22
2022-10-31T18:53:07.474Z,101295.09
2022-10-31T18:55:33.916Z,101290.91
2022-10-31T18:58:00.697Z,101288.34
2022-10-31T19:00:27.263Z,101298.31
2022-10-31T19:02:56.511Z,101290.59
2022-10-31T19:05:23.245Z,101288.06
2022-10-31T19:07:50.610Z,101287.91
2022-10-31T19:10:17.119Z,101275.78
2022-10-31T19:12:43.599Z,101283.84
2022-10-31T19:15:10.412Z,101278.28
2022-10-31T19:17:36.837Z,101280.63
2022-10-31T19:20:03.632Z,101282.41
2022-10-31T19:22:31.294Z,101269.31
2022-10-31T19:24:57.672Z,101277.91
2022-10-31T19:27:26.403Z,101270.19
2022-10-31T19:29:52.812Z,101265.78
2022-10-31T19:32:19.226Z,101267.09
2022-10-31T19:34:45.677Z,101255.47
2022-10-31T19:37:12.159Z,101261.41
2022-10-31T19:39:43.673Z,101247.22
2022-10-31T19:42:11.121Z,101253.94
2022-10-31T19:44:37.573Z,101245.72
2022-10-31T19:47:04.011Z,101249.75
2022-10-31T19:49:30.487Z,101252.28
2022-10-31T19:51:57.054Z,101245.88
2022-10-31T19:54:23.989Z,101238.31
2022-10-31T19:56:50.500Z,101238.13
2022-10-31T19:59:16.939Z,101236.41
2022-10-31T20:01:43.424Z,101231.88
2022-10-31T20:04:10.057Z,101234.19
2022-10-31T20:06:39.474Z,101225.91
2022-10-31T20:09:13.470Z,101225.72
2022-10-31T20:11:41.907Z,101211.56
2022-10-31T20:14:10.184Z,101221.00
2022-10-31T20:16:36.791Z,101224.91
2022-10-31T20:19:03.484Z,101218.31
2022-10-31T20:21:32.041Z,101219.69
2022-10-31T20:24:00.956Z,101217.38
2022-10-31T20:26:29.057Z,101211.41
2022-10-31T20:28:56.857Z,101203.53
2022-10-31T20:31:26.231Z,101207.56
2022-10-31T20:33:53.561Z,101211.78
2022-10-31T20:36:23.437Z,101207.88
2022-10-31T20:38:51.584Z,101209.94
2022-10-31T20:41:18.351Z,101205.97
2022-10-31T20:43:45.347Z,101209.22
2022-10-31T20:46:17.562Z,101207.34
2022-10-31T20:48:44.709Z,101208.56
2022-10-31T20:51:21.338Z,101203.84
2022-10-31T20:53:51.910Z,101200.44
2022-10-31T20:56:21.316Z,101186.03
2022-10-31T20:58:48.318Z,101193.25
2022-10-31T21:01:19.135Z,101187.38
2022-10-31T21:03:46.195Z,101186.03
2022-10-31T21:06:13.151Z,101186.97
2022-10-31T21:08:40.401Z,101190.03
2022-10-31T21:11:12.842Z,101185.63
2022-10-31T21:13:41.265Z,101188.31
2022-10-31T21:16:13.236Z,101184.56
2022-10-31T21:18:41.244Z,101183.19
2022-10-31T21:21:30.784Z,101178.56
2022-10-31T21:24:02.060Z,101172.41
2022-10-31T21:26:36.111Z,101173.06
2022-10-31T21:29:04.541Z,101166.06
2022-10-31T21:31:32.450Z,101166.88
2022-10-31T21:33:58.838Z,101160.97
2022-10-31T21:36:26.187Z,101158.66
2022-10-31T21:38:54.061Z,101149.06
2022-10-31T21:41:20.674Z,101151.47
2022-10-31T21:43:49.054Z,101144.13
2022-10-31T21:46:17.932Z,101144.69
2022-10-31T21:48:45.082Z,101144.38
2022-10-31T21:51:20.407Z,101139.53
2022-10-31T21:54:05.701Z,101138.47
2022-10-31T21:56:32.597Z,101134.97
2022-10-31T21:58:59.832Z,101140.34
2022-10-31T22:01:28.384Z,101137.00
2022-10-31T22:03:55.737Z,101137.78
2022-10-31T22:06:22.480Z,101132.56
2022-10-31T22:08:49.071Z,101133.09
2022-10-31T22:11:17.606Z,101132.56
2022-10-31T22:13:46.223Z,101132.56
2022-10-31T22:16:15.472Z,101137.31
2022-10-31T22:18:43.070Z,101142.38
2022-10-31T22:21:15.327Z,101136.34
2022-10-31T22:23:42.658Z,101133.72
2022-10-31T22:26:14.052Z,101130.66
2022-10-31T22:28:42.627Z,101131.97
2022-10-31T22:33:39.796Z,101129.59
2022-10-31T22:36:09.053Z,101122.91
2022-10-31T22:38:40.499Z,101117.00
2022-10-31T22:41:08.958Z,101121.72
2022-10-31T22:43:35.806Z,101117.50
2022-10-31T22:46:06.079Z,101106.34
2022-10-31T22:48:39.707Z,101097.13
2022-10-31T22:51:11.699Z,101095.56
2022-10-31T22:53:39.169Z,101093.47
2022-10-31T22:56:07.978Z,101086.69
2022-10-31T22:58:35.406Z,101086.38
2022-10-31T23:01:10.361Z,101080.88
2022-10-31T23:03:37.029Z,101064.22
2022-10-31T23:06:04.947Z,101060.69
2022-10-31T23:08:33.896Z,101067.59
2022-10-31T23:11:00.387Z,101062.06
2022-10-31T23:13:45.313Z,101068.84
2022-10-31T23:16:13.132Z,101064.22
2022-10-31T23:18:54.732Z,101064.13
2022-10-31T23:21:44.034Z,101071.16
2022-10-31T23:24:11.792Z,101053.97
2022-10-31T23:26:58.379Z,101049.13
2022-10-31T23:29:24.786Z,101041.91
2022-10-31T23:31:54.399Z,101044.69
2022-10-31T23:34:22.535Z,101045.66
2022-10-31T23:36:49.199Z,101046.13
2022-10-31T23:39:17.092Z,101033.88
2022-10-31T23:41:44.583Z,101038.31
2022-10-31T23:44:11.040Z,101034.19
2022-10-31T23:46:37.457Z,101025.19
2022-10-31T23:49:03.899Z,101019.41
2022-10-31T23:51:30.346Z,101004.34
2022-10-31T23:53:56.730Z,101011.38
2022-10-31T23:56:23.195Z,101007.13
2022-10-31T23:58:49.593Z,101002.75
